sensor_id;sensor_type;location;lat;lon;timestamp;pressure;altitude;pressure_sealevel;temperature;humidity
41312;BME280;27061;41.648;24.568;2022-10-26T00:03:35;86389.22;;;14.36;47.62
41312;BME280;27061;41.648;24.568;2022-10-26T00:06:11;86366.66;;;14.11;47.39
41312;BME280;27061;41.648;24.568;2022-10-26T00:08:38;86391.31;;;14.35;47.48
41312;BME280;27061;41.648;24.568;2022-10-26T00:11:06;86369.53;;;14.07;47.86
41312;BME280;27061;41.648;24.568;2022-10-26T00:13:33;86388.81;;;14.19;48.21
41312;BME280;27061;41.648;24.568;2022-10-26T00:16:00;86376.41;;;14.10;48.21
41312;BME280;27061;41.648;24.568;2022-10-26T00:18:27;86368.19;;;14.02;48.20
41312;BME280;27061;41.648;24.568;2022-10-26T00:20:54;86380.63;;;14.09;47.90
41312;BME280;27061;41.648;24.568;2022-10-26T00:23:27;86401.97;;;14.22;48.07
41312;BME280;27061;41.648;24.568;2022-10-26T00:25:55;86400.66;;;14.17;48.39
41312;BME280;27061;41.648;24.568;2022-10-26T00:28:23;86403.41;;;14.19;48.35
41312;BME280;27061;41.648;24.568;2022-10-26T00:30:50;86394.44;;;14.15;48.02
41312;BME280;27061;41.648;24.568;2022-10-26T00:33:17;86388.91;;;14.13;48.19
41312;BME280;27061;41.648;24.568;2022-10-26T00:35:52;86379.81;;;14.14;48.09
41312;BME280;27061;41.648;24.568;2022-10-26T00:38:19;86370.22;;;14.07;47.79
41312;BME280;27061;41.648;24.568;2022-10-26T00:40:46;86377.75;;;14.13;48.49
41312;BME280;27061;41.648;24.568;2022-10-26T00:43:15;86388.19;;;14.14;48.41
41312;BME280;27061;41.648;24.568;2022-10-26T00:46:01;86385.41;;;14.14;48.67
41312;BME280;27061;41.648;24.568;2022-10-26T00:48:32;86344.88;;;13.80;48.63
41312;BME280;27061;41.648;24.568;2022-10-26T00:51:05;86392.31;;;14.17;48.47
41312;BME280;27061;41.648;24.568;2022-10-26T00:53:32;86362.72;;;13.98;48.81
41312;BME280;27061;41.648;24.568;2022-10-26T00:56:00;86387.44;;;14.18;48.54
41312;BME280;27061;41.648;24.568;2022-10-26T00:58:27;86371.59;;;14.08;48.62
41312;BME280;27061;41.648;24.568;2022-10-26T01:00:55;86376.31;;;14.16;49.12
41312;BME280;27061;41.648;24.568;2022-10-26T01:03:22;86376.38;;;14.12;49.18
41312;BME280;27061;41.648;24.568;2022-10-26T01:05:55;86364.81;;;13.97;49.47
41312;BME280;27061;41.648;24.568;2022-10-26T01:08:24;86351.66;;;13.91;49.05
41312;BME280;27061;41.648;24.568;2022-10-26T01:10:56;86360.50;;;14.04;48.80
41312;BME280;27061;41.648;24.568;2022-10-26T01:13:25;86359.88;;;14.00;48.87
41312;BME280;27061;41.648;24.568;2022-10-26T01:24:06;86366.03;;;14.08;49.76
41312;BME280;27061;41.648;24.568;2022-10-26T01:32:11;86371.59;;;14.08;49.68
41312;BME280;27061;41.648;24.568;2022-10-26T01:34:47;86344.81;;;13.86;50.16
41312;BME280;27061;41.648;24.568;2022-10-26T01:37:29;86364.03;;;14.01;50.24
41312;BME280;27061;41.648;24.568;2022-10-26T01:40:02;86331.81;;;13.71;50.29
41312;BME280;27061;41.648;24.568;2022-10-26T01:42:34;86338.56;;;13.84;50.22
41312;BME280;27061;41.648;24.568;2022-10-26T01:45:05;86272.78;;;13.23;50.46
41312;BME280;27061;41.648;24.568;2022-10-26T01:47:36;86343.41;;;13.87;50.34
41312;BME280;27061;41.648;24.568;2022-10-26T01:50:04;86346.31;;;13.77;50.44
41312;BME280;27061;41.648;24.568;2022-10-26T01:52:32;86359.31;;;13.91;50.58
41312;BME280;27061;41.648;24.568;2022-10-26T02:01:12;86362.09;;;13.93;50.38
41312;BME280;27061;41.648;24.568;2022-10-26T02:11:51;86343.69;;;13.69;50.52
41312;BME280;27061;41.648;24.568;2022-10-26T02:14:28;86360.91;;;13.80;50.57
41312;BME280;27061;41.648;24.568;2022-10-26T02:17:07;86347.84;;;13.70;50.60
41312;BME280;27061;41.648;24.568;2022-10-26T02:19:42;86350.75;;;13.62;50.44
41312;BME280;27061;41.648;24.568;2022-10-26T02:22:19;86371.22;;;13.87;50.51
41312;BME280;27061;41.648;24.568;2022-10-26T02:24:51;86343.69;;;13.67;50.15
41312;BME280;27061;41.648;24.568;2022-10-26T02:27:33;86323.94;;;13.42;50.61
41312;BME280;27061;41.648;24.568;2022-10-26T02:30:01;86374.03;;;13.85;50.37
41312;BME280;27061;41.648;24.568;2022-10-26T02:32:34;86364.53;;;13.70;50.36
41312;BME280;27061;41.648;24.568;2022-10-26T02:35:04;86321.91;;;13.39;50.50
41312;BME280;27061;41.648;24.568;2022-10-26T02:37:33;86377.81;;;13.66;50.77
41312;BME280;27061;41.648;24.568;2022-10-26T02:40:06;86364.22;;;13.45;50.78
41312;BME280;27061;41.648;24.568;2022-10-26T02:42:35;86382.72;;;13.63;50.69
41312;BME280;27061;41.648;24.568;2022-10-26T02:45:06;86385.50;;;13.65;50.38
41312;BME280;27061;41.648;24.568;2022-10-26T02:47:36;86369.66;;;13.53;50.21
41312;BME280;27061;41.648;24.568;2022-10-26T02:50:03;86358.69;;;13.43;50.13
41312;BME280;27061;41.648;24.568;2022-10-26T02:53:10;86379.94;;;13.63;50.32
41312;BME280;27061;41.648;24.568;2022-10-26T02:55:46;86360.72;;;13.47;50.42
41312;BME280;27061;41.648;24.568;2022-10-26T02:58:38;86364.16;;;13.49;50.39
41312;BME280;27061;41.648;24.568;2022-10-26T03:01:07;86389.13;;;13.53;50.72
41312;BME280;27061;41.648;24.568;2022-10-26T03:03:34;86355.25;;;13.41;50.36
41312;BME280;27061;41.648;24.568;2022-10-26T03:06:01;86366.38;;;13.41;50.20
41312;BME280;27061;41.648;24.568;2022-10-26T03:08:28;86382.13;;;13.56;50.29
41312;BME280;27061;41.648;24.568;2022-10-26T03:10:55;86367.66;;;13.48;50.11
41312;BME280;27061;41.648;24.568;2022-10-26T03:13:22;86363.59;;;13.41;50.26
41312;BME280;27061;41.648;24.568;2022-10-26T03:15:49;86338.78;;;13.25;50.57
41312;BME280;27061;41.648;24.568;2022-10-26T03:18:16;86380.06;;;13.55;50.47
41312;BME280;27061;41.648;24.568;2022-10-26T03:20:43;86390.50;;;13.54;50.43
41312;BME280;27061;41.648;24.568;2022-10-26T03:23:11;86369.88;;;13.37;50.59
41312;BME280;27061;41.648;24.568;2022-10-26T03:25:38;86349.19;;;13.26;50.33
41312;BME280;27061;41.648;24.568;2022-10-26T03:28:05;86363.84;;;13.23;50.96
41312;BME280;27061;41.648;24.568;2022-10-26T03:30:33;86381.63;;;13.44;50.85
41312;BME280;27061;41.648;24.568;2022-10-26T03:33:00;86333.53;;;13.02;51.18
41312;BME280;27061;41.648;24.568;2022-10-26T03:35:27;86374.88;;;13.29;50.90
41312;BME280;27061;41.648;24.568;2022-10-26T03:37:54;86376.13;;;13.40;50.73
41312;BME280;27061;41.648;24.568;2022-10-26T03:40:21;86363.13;;;13.24;50.77
41312;BME280;27061;41.648;24.568;2022-10-26T03:42:48;86380.56;;;13.21;51.32
41312;BME280;27061;41.648;24.568;2022-10-26T03:45:15;86359.09;;;13.13;51.01
41312;BME280;27061;41.648;24.568;2022-10-26T03:47:43;86362.66;;;13.05;51.01
41312;BME280;27061;41.648;24.568;2022-10-26T03:50:11;86375.81;;;13.09;50.88
41312;BME280;27061;41.648;24.568;2022-10-26T03:52:39;86386.91;;;13.11;50.92
41312;BME280;27061;41.648;24.568;2022-10-26T03:55:07;86356.06;;;12.80;50.87
41312;BME280;27061;41.648;24.568;2022-10-26T03:57:39;86360.13;;;12.85;50.86
41312;BME280;27061;41.648;24.568;2022-10-26T04:00:08;86390.47;;;13.03;50.84
41312;BME280;27061;41.648;24.568;2022-10-26T04:02:42;86367.13;;;12.82;50.66
41312;BME280;27061;41.648;24.568;2022-10-26T04:05:13;86392.69;;;12.93;50.88
41312;BME280;27061;41.648;24.568;2022-10-26T04:07:41;86394.69;;;13.02;50.82
41312;BME280;27061;41.648;24.568;2022-10-26T04:10:08;86373.91;;;12.95;51.01
41312;BME280;27061;41.648;24.568;2022-10-26T04:12:36;86385.03;;;12.95;51.04
41312;BME280;27061;41.648;24.568;2022-10-26T04:15:04;86390.53;;;12.99;51.03
41312;BME280;27061;41.648;24.568;2022-10-26T04:17:33;86377.50;;;12.86;51.31
41312;BME280;27061;41.648;24.568;2022-10-26T04:20:00;86372.78;;;12.74;51.66
41312;BME280;27061;41.648;24.568;2022-10-26T04:22:27;86400.38;;;12.90;52.01
41312;BME280;27061;41.648;24.568;2022-10-26T04:24:53;86387.22;;;12.84;51.65
41312;BME280;27061;41.648;24.568;2022-10-26T04:27:20;86325.94;;;12.43;51.46
41312;BME280;27061;41.648;24.568;2022-10-26T04:29:47;86385.81;;;12.88;51.45
41312;BME280;27061;41.648;24.568;2022-10-26T04:32:14;86379.69;;;12.77;51.46
41312;BME280;27061;41.648;24.568;2022-10-26T04:41:27;86353.03;;;12.98;51.09
41312;BME280;27061;41.648;24.568;2022-10-26T04:43:54;86333.88;;;12.74;50.76
41312;BME280;27061;41.648;24.568;2022-10-26T04:46:21;86360.22;;;12.81;50.92
41312;BME280;27061;41.648;24.568;2022-10-26T04:48:48;86386.34;;;13.00;50.91
41312;BME280;27061;41.648;24.568;2022-10-26T04:51:15;86368.69;;;12.69;50.87
41312;BME280;27061;41.648;24.568;2022-10-26T04:53:42;86365.22;;;12.68;50.91
41312;BME280;27061;41.648;24.568;2022-10-26T04:56:09;86362.47;;;12.66;50.91
41312;BME280;27061;41.648;24.568;2022-10-26T04:58:36;86374.88;;;12.71;51.19
41312;BME280;27061;41.648;24.568;2022-10-26T05:01:03;86399.03;;;12.85;51.28
41312;BME280;27061;41.648;24.568;2022-10-26T05:03:30;86404.59;;;12.85;51.39
41312;BME280;27061;41.648;24.568;2022-10-26T05:05:57;86388.06;;;12.73;51.68
41312;BME280;27061;41.648;24.568;2022-10-26T05:08:27;86405.34;;;12.81;51.54
41312;BME280;27061;41.648;24.568;2022-10-26T05:10:55;86412.31;;;12.78;51.66
41312;BME280;27061;41.648;24.568;2022-10-26T05:13:22;86412.34;;;12.76;51.57
41312;BME280;27061;41.648;24.568;2022-10-26T05:15:52;86413.06;;;12.75;51.78
41312;BME280;27061;41.648;24.568;2022-10-26T05:18:20;86396.56;;;12.59;52.32
41312;BME280;27061;41.648;24.568;2022-10-26T05:20:47;86395.03;;;12.72;52.66
41312;BME280;27061;41.648;24.568;2022-10-26T05:23:15;86410.25;;;12.77;52.55
41312;BME280;27061;41.648;24.568;2022-10-26T05:25:44;86395.09;;;12.66;53.62
41312;BME280;27061;41.648;24.568;2022-10-26T05:28:13;86418.63;;;12.73;53.78
41312;BME280;27061;41.648;24.568;2022-10-26T05:30:42;86402.72;;;12.67;53.94
41312;BME280;27061;41.648;24.568;2022-10-26T05:33:11;86403.53;;;12.58;53.67
41312;BME280;27061;41.648;24.568;2022-10-26T05:35:39;86402.81;;;12.59;54.38
41312;BME280;27061;41.648;24.568;2022-10-26T05:38:12;86414.44;;;12.76;54.58
41312;BME280;27061;41.648;24.568;2022-10-26T05:40:46;86414.50;;;12.70;54.85
41312;BME280;27061;41.648;24.568;2022-10-26T05:43:14;86404.34;;;12.48;55.34
41312;BME280;27061;41.648;24.568;2022-10-26T05:45:41;86436.00;;;12.71;55.12
41312;BME280;27061;41.648;24.568;2022-10-26T05:48:08;86387.13;;;12.31;55.71
41312;BME280;27061;41.648;24.568;2022-10-26T05:50:35;86415.34;;;12.56;55.71
41312;BME280;27061;41.648;24.568;2022-10-26T05:53:02;86407.06;;;12.50;55.49
41312;BME280;27061;41.648;24.568;2022-10-26T05:55:29;86410.59;;;12.46;56.11
41312;BME280;27061;41.648;24.568;2022-10-26T05:57:57;86407.84;;;12.42;55.78
41312;BME280;27061;41.648;24.568;2022-10-26T06:00:26;86443.69;;;12.69;55.64
41312;BME280;27061;41.648;24.568;2022-10-26T06:05:56;86453.34;;;12.72;55.54
41312;BME280;27061;41.648;24.568;2022-10-26T06:08:27;86427.88;;;12.53;55.22
41312;BME280;27061;41.648;24.568;2022-10-26T06:10:56;86447.91;;;12.64;55.43
41312;BME280;27061;41.648;24.568;2022-10-26T06:13:25;86456.72;;;12.82;55.27
41312;BME280;27061;41.648;24.568;2022-10-26T06:21:54;86465.84;;;12.73;56.97
41312;BME280;27061;41.648;24.568;2022-10-26T06:29:56;86453.97;;;12.80;57.09
41312;BME280;27061;41.648;24.568;2022-10-26T06:32:25;86454.63;;;12.83;57.37
41312;BME280;27061;41.648;24.568;2022-10-26T06:35:02;86473.25;;;12.97;56.97
41312;BME280;27061;41.648;24.568;2022-10-26T06:37:36;86458.66;;;12.96;56.26
41312;BME280;27061;41.648;24.568;2022-10-26T06:40:05;86461.38;;;13.02;56.73
41312;BME280;27061;41.648;24.568;2022-10-26T06:42:32;86473.72;;;13.17;56.77
41312;BME280;27061;41.648;24.568;2022-10-26T06:44:59;86477.84;;;13.23;56.84
41312;BME280;27061;41.648;24.568;2022-10-26T06:52:47;86468.63;;;13.36;57.75
41312;BME280;27061;41.648;24.568;2022-10-26T06:55:17;86447.06;;;13.37;55.50
41312;BME280;27061;41.648;24.568;2022-10-26T06:57:44;86444.88;;;13.45;54.17
41312;BME280;27061;41.648;24.568;2022-10-26T07:02:41;86486.53;;;13.99;53.24
41312;BME280;27061;41.648;24.568;2022-10-26T07:05:08;86472.53;;;14.07;52.53
41312;BME280;27061;41.648;24.568;2022-10-26T07:07:43;86464.88;;;14.07;52.58
41312;BME280;27061;41.648;24.568;2022-10-26T07:10:12;86446.16;;;14.00;53.05
41312;BME280;27061;41.648;24.568;2022-10-26T07:12:40;86457.03;;;14.18;53.55
41312;BME280;27061;41.648;24.568;2022-10-26T07:15:07;86476.25;;;14.36;52.72
41312;BME280;27061;41.648;24.568;2022-10-26T07:17:44;86482.16;;;14.59;53.38
41312;BME280;27061;41.648;24.568;2022-10-26T07:20:12;86475.69;;;14.71;53.67
41312;BME280;27061;41.648;24.568;2022-10-26T07:22:39;86481.00;;;14.85;51.10
41312;BME280;27061;41.648;24.568;2022-10-26T07:25:09;86492.03;;;14.93;53.35
41312;BME280;27061;41.648;24.568;2022-10-26T07:27:37;86480.66;;;15.05;51.79
41312;BME280;27061;41.648;24.568;2022-10-26T07:30:04;86450.31;;;14.87;52.13
41312;BME280;27061;41.648;24.568;2022-10-26T07:32:31;86477.44;;;15.27;51.82
41312;BME280;27061;41.648;24.568;2022-10-26T07:34:58;86482.19;;;15.35;52.55
41312;BME280;27061;41.648;24.568;2022-10-26T07:37:25;86457.28;;;15.25;51.92
41312;BME280;27061;41.648;24.568;2022-10-26T07:39:52;86474.06;;;15.58;50.09
41312;BME280;27061;41.648;24.568;2022-10-26T07:42:19;86476.63;;;15.70;48.98
41312;BME280;27061;41.648;24.568;2022-10-26T07:44:46;86457.22;;;15.64;49.71
41312;BME280;27061;41.648;24.568;2022-10-26T07:47:13;86455.69;;;15.69;49.29
41312;BME280;27061;41.648;24.568;2022-10-26T07:49:40;86478.97;;;15.90;49.89
41312;BME280;27061;41.648;24.568;2022-10-26T07:52:08;86464.25;;;15.94;50.44
41312;BME280;27061;41.648;24.568;2022-10-26T07:54:35;86481.16;;;16.19;50.34
41312;BME280;27061;41.648;24.568;2022-10-26T07:57:02;86482.31;;;16.30;49.72
41312;BME280;27061;41.648;24.568;2022-10-26T07:59:29;86484.91;;;16.38;48.63
41312;BME280;27061;41.648;24.568;2022-10-26T08:01:56;86468.25;;;16.34;49.18
41312;BME280;27061;41.648;24.568;2022-10-26T08:04:23;86406.91;;;15.99;48.95
41312;BME280;27061;41.648;24.568;2022-10-26T08:06:50;86477.94;;;16.68;47.08
41312;BME280;27061;41.648;24.568;2022-10-26T08:09:16;86485.88;;;16.86;47.36
41312;BME280;27061;41.648;24.568;2022-10-26T08:11:43;86471.16;;;16.88;47.36
41312;BME280;27061;41.648;24.568;2022-10-26T08:14:10;86472.34;;;16.97;45.78
41312;BME280;27061;41.648;24.568;2022-10-26T08:16:37;86484.38;;;17.18;44.95
41312;BME280;27061;41.648;24.568;2022-10-26T08:19:06;86474.53;;;17.21;45.41
41312;BME280;27061;41.648;24.568;2022-10-26T08:21:33;86451.06;;;17.08;45.92
41312;BME280;27061;41.648;24.568;2022-10-26T08:24:06;86463.16;;;17.27;45.40
41312;BME280;27061;41.648;24.568;2022-10-26T08:26:33;86473.84;;;17.47;45.59
41312;BME280;27061;41.648;24.568;2022-10-26T08:29:00;86480.59;;;17.56;46.53
41312;BME280;27061;41.648;24.568;2022-10-26T08:31:27;86475.03;;;17.54;46.17
41312;BME280;27061;41.648;24.568;2022-10-26T08:33:54;86473.41;;;17.64;46.11
41312;BME280;27061;41.648;24.568;2022-10-26T08:36:26;86489.59;;;17.86;46.03
41312;BME280;27061;41.648;24.568;2022-10-26T08:38:53;86466.69;;;17.79;45.62
41312;BME280;27061;41.648;24.568;2022-10-26T08:44:00;86493.00;;;18.13;42.17
41312;BME280;27061;41.648;24.568;2022-10-26T08:46:42;86495.69;;;18.17;42.56
41312;BME280;27061;41.648;24.568;2022-10-26T08:49:34;86495.34;;;18.29;43.79
41312;BME280;27061;41.648;24.568;2022-10-26T08:52:03;86495.28;;;18.32;43.21
41312;BME280;27061;41.648;24.568;2022-10-26T08:54:48;86477.59;;;18.37;43.41
41312;BME280;27061;41.648;24.568;2022-10-26T08:57:36;86488.44;;;18.49;44.11
41312;BME280;27061;41.648;24.568;2022-10-26T09:00:09;86465.56;;;18.41;43.83
41312;BME280;27061;41.648;24.568;2022-10-26T09:02:36;86451.56;;;18.41;43.84
41312;BME280;27061;41.648;24.568;2022-10-26T09:05:13;86485.41;;;18.80;42.41
41312;BME280;27061;41.648;24.568;2022-10-26T09:08:07;86488.56;;;18.91;41.77
41312;BME280;27061;41.648;24.568;2022-10-26T09:14:04;86479.50;;;19.11;41.81
41312;BME280;27061;41.648;24.568;2022-10-26T09:17:07;86482.59;;;19.24;42.24
41312;BME280;27061;41.648;24.568;2022-10-26T09:25:40;86478.72;;;19.56;41.33
41312;BME280;27061;41.648;24.568;2022-10-26T09:28:14;86471.06;;;19.55;41.96
41312;BME280;27061;41.648;24.568;2022-10-26T09:30:43;86446.72;;;19.47;40.54
41312;BME280;27061;41.648;24.568;2022-10-26T09:33:21;86473.72;;;19.80;40.74
41312;BME280;27061;41.648;24.568;2022-10-26T09:38:30;86453.00;;;19.89;41.05
41312;BME280;27061;41.648;24.568;2022-10-26T09:46:43;86465.03;;;20.25;39.14
41312;BME280;27061;41.648;24.568;2022-10-26T09:49:14;86467.34;;;20.39;39.28
41312;BME280;27061;41.648;24.568;2022-10-26T09:51:43;86457.75;;;20.32;37.96
41312;BME280;27061;41.648;24.568;2022-10-26T09:54:16;86394.31;;;20.00;37.92
41312;BME280;27061;41.648;24.568;2022-10-26T09:56:47;86476.38;;;20.61;37.15
41312;BME280;27061;41.648;24.568;2022-10-26T09:59:17;86460.44;;;20.55;38.22
41312;BME280;27061;41.648;24.568;2022-10-26T10:01:45;86469.00;;;20.70;38.28
41312;BME280;27061;41.648;24.568;2022-10-26T10:06:40;86456.34;;;20.88;38.36
41312;BME280;27061;41.648;24.568;2022-10-26T10:09:10;86436.06;;;20.85;36.73
41312;BME280;27061;41.648;24.568;2022-10-26T10:11:42;86460.66;;;21.03;36.82
41312;BME280;27061;41.648;24.568;2022-10-26T10:14:15;86461.69;;;21.12;36.96
41312;BME280;27061;41.648;24.568;2022-10-26T10:16:53;86435.16;;;21.07;38.10
41312;BME280;27061;41.648;24.568;2022-10-26T10:19:22;86460.47;;;21.26;36.90
41312;BME280;27061;41.648;24.568;2022-10-26T10:21:53;86445.09;;;21.23;35.60
41312;BME280;27061;41.648;24.568;2022-10-26T10:24:31;86450.66;;;21.42;36.70
41312;BME280;27061;41.648;24.568;2022-10-26T10:27:16;86455.88;;;21.52;36.78
41312;BME280;27061;41.648;24.568;2022-10-26T10:34:51;86441.97;;;21.65;36.09
41312;BME280;27061;41.648;24.568;2022-10-26T10:39:58;86437.88;;;21.78;36.04
41312;BME280;27061;41.648;24.568;2022-10-26T10:42:29;86432.72;;;21.83;35.33
41312;BME280;27061;41.648;24.568;2022-10-26T10:44:58;86433.94;;;21.88;35.67
41312;BME280;27061;41.648;24.568;2022-10-26T10:47:31;86432.13;;;21.97;35.50
41312;BME280;27061;41.648;24.568;2022-10-26T10:50:19;86421.63;;;21.96;35.96
41312;BME280;27061;41.648;24.568;2022-10-26T10:52:46;86404.72;;;21.96;35.80
41312;BME280;27061;41.648;24.568;2022-10-26T11:00:18;86380.78;;;21.95;34.91
41312;BME280;27061;41.648;24.568;2022-10-26T11:13:52;86421.53;;;22.46;34.62
41312;BME280;27061;41.648;24.568;2022-10-26T11:16:35;86400.69;;;22.39;34.46
41312;BME280;27061;41.648;24.568;2022-10-26T11:19:11;86420.41;;;22.55;34.15
41312;BME280;27061;41.648;24.568;2022-10-26T11:21:44;86407.91;;;22.50;33.60
41312;BME280;27061;41.648;24.568;2022-10-26T11:24:28;86420.09;;;22.61;34.40
41312;BME280;27061;41.648;24.568;2022-10-26T11:27:02;86374.16;;;22.34;34.00
41312;BME280;27061;41.648;24.568;2022-10-26T11:32:46;86381.00;;;22.53;33.15
41312;BME280;27061;41.648;24.568;2022-10-26T11:37:58;86395.47;;;22.60;32.87
41312;BME280;27061;41.648;24.568;2022-10-26T11:43:32;86415.78;;;22.79;34.12
41312;BME280;27061;41.648;24.568;2022-10-26T11:46:17;86395.78;;;22.69;33.00
41312;BME280;27061;41.648;24.568;2022-10-26T11:49:04;86412.25;;;22.79;32.80
41312;BME280;27061;41.648;24.568;2022-10-26T11:51:47;86409.34;;;22.81;32.09
41312;BME280;27061;41.648;24.568;2022-10-26T11:54:28;86400.06;;;22.68;32.65
41312;BME280;27061;41.648;24.568;2022-10-26T11:56:58;86362.09;;;22.35;30.56
41312;BME280;27061;41.648;24.568;2022-10-26T11:59:33;86414.75;;;22.70;31.41
41312;BME280;27061;41.648;24.568;2022-10-26T12:02:13;86399.28;;;22.54;32.69
41312;BME280;27061;41.648;24.568;2022-10-26T12:04:44;86395.47;;;22.45;33.01
41312;BME280;27061;41.648;24.568;2022-10-26T12:07:53;86380.56;;;22.32;32.74
41312;BME280;27061;41.648;24.568;2022-10-26T12:10:30;86408.50;;;22.53;32.63
41312;BME280;27061;41.648;24.568;2022-10-26T12:15:41;86417.56;;;22.55;32.36
41312;BME280;27061;41.648;24.568;2022-10-26T12:18:53;86390.28;;;22.35;31.50
41312;BME280;27061;41.648;24.568;2022-10-26T12:21:28;86416.66;;;22.44;32.27
41312;BME280;27061;41.648;24.568;2022-10-26T12:24:01;86421.03;;;22.41;33.27
41312;BME280;27061;41.648;24.568;2022-10-26T12:26:51;86417.72;;;22.37;33.18
41312;BME280;27061;41.648;24.568;2022-10-26T12:31:57;86387.28;;;22.08;33.68
41312;BME280;27061;41.648;24.568;2022-10-26T12:39:38;86410.66;;;22.21;34.81
41312;BME280;27061;41.648;24.568;2022-10-26T12:45:00;86424.50;;;22.27;35.06
41312;BME280;27061;41.648;24.568;2022-10-26T12:50:18;86426.38;;;22.33;32.41
41312;BME280;27061;41.648;24.568;2022-10-26T12:52:51;86391.56;;;22.07;33.83
41312;BME280;27061;41.648;24.568;2022-10-26T13:00:50;86415.22;;;21.97;35.66
41312;BME280;27061;41.648;24.568;2022-10-26T13:03:33;86426.38;;;22.16;35.22
41312;BME280;27061;41.648;24.568;2022-10-26T13:06:30;86430.84;;;22.11;35.38
41312;BME280;27061;41.648;24.568;2022-10-26T13:09:23;86416.84;;;21.92;35.41
41312;BME280;27061;41.648;24.568;2022-10-26T13:11:54;86425.56;;;21.86;34.65
41312;BME280;27061;41.648;24.568;2022-10-26T13:14:34;86429.75;;;22.04;36.18
41312;BME280;27061;41.648;24.568;2022-10-26T13:17:06;86398.22;;;21.82;36.91
41312;BME280;27061;41.648;24.568;2022-10-26T13:19:48;86421.63;;;21.96;36.86
41312;BME280;27061;41.648;24.568;2022-10-26T13:22:18;86435.47;;;21.85;37.59
41312;BME280;27061;41.648;24.568;2022-10-26T13:24:47;86412.94;;;21.68;38.17
41312;BME280;27061;41.648;24.568;2022-10-26T13:32:32;86438.53;;;21.96;38.49
41312;BME280;27061;41.648;24.568;2022-10-26T13:35:02;86447.00;;;21.96;39.14
41312;BME280;27061;41.648;24.568;2022-10-26T13:37:32;86444.34;;;21.91;39.04
41312;BME280;27061;41.648;24.568;2022-10-26T13:40:03;86454.69;;;21.97;39.07
41312;BME280;27061;41.648;24.568;2022-10-26T13:42:45;86444.09;;;21.98;38.87
41312;BME280;27061;41.648;24.568;2022-10-26T13:45:36;86450.09;;;21.89;39.31
41312;BME280;27061;41.648;24.568;2022-10-26T13:48:13;86427.03;;;21.68;39.41
41312;BME280;27061;41.648;24.568;2022-10-26T13:50:50;86447.94;;;21.90;38.75
41312;BME280;27061;41.648;24.568;2022-10-26T13:53:31;86453.25;;;21.81;38.98
41312;BME280;27061;41.648;24.568;2022-10-26T13:56:21;86451.88;;;21.80;39.29
41312;BME280;27061;41.648;24.568;2022-10-26T13:59:00;86466.56;;;21.66;39.48
41312;BME280;27061;41.648;24.568;2022-10-26T14:01:29;86463.34;;;21.60;40.36
41312;BME280;27061;41.648;24.568;2022-10-26T14:03:57;86459.56;;;21.48;40.25
41312;BME280;27061;41.648;24.568;2022-10-26T14:06:36;86443.78;;;21.03;40.07
41312;BME280;27061;41.648;24.568;2022-10-26T14:09:14;86472.66;;;21.21;40.47
41312;BME280;27061;41.648;24.568;2022-10-26T14:11:50;86473.75;;;20.92;40.89
41312;BME280;27061;41.648;24.568;2022-10-26T14:14:21;86460.16;;;20.80;41.63
41312;BME280;27061;41.648;24.568;2022-10-26T14:16:51;86479.72;;;20.84;41.07
41312;BME280;27061;41.648;24.568;2022-10-26T14:19:28;86459.34;;;20.65;42.06
41312;BME280;27061;41.648;24.568;2022-10-26T14:21:56;86465.88;;;20.59;41.78
41312;BME280;27061;41.648;24.568;2022-10-26T14:27:17;86491.75;;;20.64;42.03
41312;BME280;27061;41.648;24.568;2022-10-26T14:29:44;86489.00;;;20.62;42.06
41312;BME280;27061;41.648;24.568;2022-10-26T14:32:31;86491.66;;;20.47;42.48
41312;BME280;27061;41.648;24.568;2022-10-26T14:34:59;86460.56;;;20.32;42.29
41312;BME280;27061;41.648;24.568;2022-10-26T14:37:48;86469.50;;;20.18;42.68
41312;BME280;27061;41.648;24.568;2022-10-26T14:40:20;86500.84;;;20.45;42.37
41312;BME280;27061;41.648;24.568;2022-10-26T14:42:51;86484.19;;;20.21;42.97
41312;BME280;27061;41.648;24.568;2022-10-26T14:48:04;86506.38;;;20.29;42.74
41312;BME280;27061;41.648;24.568;2022-10-26T14:50:32;86505.31;;;20.20;42.85
41312;BME280;27061;41.648;24.568;2022-10-26T14:53:02;86508.50;;;20.28;42.82
41312;BME280;27061;41.648;24.568;2022-10-26T14:55:30;86473.25;;;19.92;42.68
41312;BME280;27061;41.648;24.568;2022-10-26T14:58:29;86489.00;;;20.03;42.93
41312;BME280;27061;41.648;24.568;2022-10-26T15:07:15;86515.06;;;20.02;43.36
41312;BME280;27061;41.648;24.568;2022-10-26T15:09:48;86523.28;;;20.08;43.63
41312;BME280;27061;41.648;24.568;2022-10-26T15:12:51;86517.09;;;20.03;43.47
41312;BME280;27061;41.648;24.568;2022-10-26T15:17:53;86529.31;;;19.96;43.82
41312;BME280;27061;41.648;24.568;2022-10-26T15:20:23;86503.25;;;19.79;43.85
41312;BME280;27061;41.648;24.568;2022-10-26T15:22:52;86526.88;;;19.86;43.73
41312;BME280;27061;41.648;24.568;2022-10-26T15:25:25;86533.72;;;19.91;43.91
41312;BME280;27061;41.648;24.568;2022-10-26T15:27:53;86522.75;;;19.83;44.11
41312;BME280;27061;41.648;24.568;2022-10-26T15:30:26;86532.34;;;19.90;44.19
41312;BME280;27061;41.648;24.568;2022-10-26T15:32:54;86518.84;;;19.73;44.19
41312;BME280;27061;41.648;24.568;2022-10-26T15:35:27;86540.09;;;19.89;44.28
41312;BME280;27061;41.648;24.568;2022-10-26T15:37:55;86552.09;;;19.88;44.29
41312;BME280;27061;41.648;24.568;2022-10-26T15:40:24;86549.34;;;19.86;44.26
41312;BME280;27061;41.648;24.568;2022-10-26T15:42:52;86549.69;;;19.76;44.43
41312;BME280;27061;41.648;24.568;2022-10-26T15:45:22;86548.47;;;19.70;44.58
41312;BME280;27061;41.648;24.568;2022-10-26T15:47:51;86526.59;;;19.52;44.65
41312;BME280;27061;41.648;24.568;2022-10-26T15:50:24;86543.03;;;19.64;44.81